createdAt,value
2019-03-30T00:02:36.892Z,6.21
2019-03-30T00:08:31.977Z,6
2019-03-30T00:14:26.945Z,6.21
2019-03-30T00:20:21.962Z,6.37
2019-03-30T00:26:16.996Z,5.66
2019-03-30T00:32:11.927Z,7.02
2019-03-30T00:38:06.929Z,5.73
2019-03-30T00:44:01.932Z,5.93
2019-03-30T00:49:56.945Z,5.72
2019-03-30T00:55:51.928Z,6.5
2019-03-30T01:01:46.959Z,5.07
2019-03-30T01:07:41.995Z,5.47
2019-03-30T01:13:36.973Z,5.52
2019-03-30T01:19:31.948Z,6.24
2019-03-30T01:25:26.983Z,5.75
2019-03-30T01:31:21.996Z,5.61
2019-03-30T01:37:16.945Z,5.78
2019-03-30T01:43:11.979Z,5.49
2019-03-30T01:49:06.970Z,5.98
2019-03-30T01:55:02.001Z,6.44
2019-03-30T02:00:56.984Z,6.43
2019-03-30T02:06:51.979Z,6.47
2019-03-30T02:12:46.993Z,5.84
2019-03-30T02:18:41.996Z,5.93
2019-03-30T02:24:37.030Z,6.57
2019-03-30T02:30:31.993Z,6.47
2019-03-30T02:36:27.003Z,6.93
2019-03-30T02:42:22.051Z,6.59
2019-03-30T02:48:17.134Z,6.87
2019-03-30T02:54:11.998Z,6.69
2019-03-30T03:00:07.011Z,7.26
2019-03-30T03:06:02.057Z,6.75
2019-03-30T03:11:57.057Z,7.2
2019-03-30T03:17:52.011Z,6.69
2019-03-30T03:23:47.013Z,6.99
2019-03-30T03:29:43.793Z,7.61
2019-03-30T03:35:37.081Z,8.02
2019-03-30T03:41:32.075Z,8.09
2019-03-30T03:47:27.061Z,10.11
2019-03-30T03:53:22.046Z,7.94
2019-03-30T03:59:17.075Z,8.67
2019-03-30T04:05:12.048Z,8.3
2019-03-30T04:11:07.075Z,8.3
2019-03-30T04:17:02.081Z,8.02
2019-03-30T04:22:57.042Z,6.82
2019-03-30T04:28:52.060Z,7.12
2019-03-30T04:34:47.064Z,7.34
2019-03-30T04:40:42.087Z,7.55
2019-03-30T04:46:37.099Z,7.71
2019-03-30T04:52:32.097Z,7.6
2019-03-30T04:58:27.103Z,8.39
2019-03-30T05:04:22.098Z,7.81
2019-03-30T05:10:17.084Z,7.82
2019-03-30T05:16:12.088Z,8.98
2019-03-30T05:22:12.707Z,8.6
2019-03-30T05:28:02.080Z,8.02
2019-03-30T05:33:57.149Z,8.08
2019-03-30T05:39:52.119Z,9.24
2019-03-30T05:45:47.129Z,9.77
2019-03-30T05:51:42.135Z,8.66
2019-03-30T05:57:37.109Z,9.56
2019-03-30T06:03:32.138Z,24.59
2019-03-30T06:09:27.161Z,38.2
2019-03-30T06:15:22.146Z,24.58
2019-03-30T06:21:17.128Z,20.13
2019-03-30T06:27:12.172Z,17.94
2019-03-30T06:33:07.152Z,12.37
2019-03-30T06:39:02.120Z,10.1
2019-03-30T06:44:57.120Z,9.44
2019-03-30T06:50:52.137Z,11.07
2019-03-30T06:56:47.145Z,13.7
2019-03-30T07:02:42.129Z,13.25
2019-03-30T07:08:37.161Z,11.37
2019-03-30T07:14:32.321Z,16.37
2019-03-30T07:20:27.150Z,12.79
2019-03-30T07:26:22.151Z,11.54
2019-03-30T07:32:17.194Z,12.45
2019-03-30T07:38:12.214Z,11.51
2019-03-30T07:44:07.262Z,12.26
2019-03-30T07:50:02.179Z,13.48
2019-03-30T07:56:07.621Z,9.84
2019-03-30T08:01:52.185Z,10.14
2019-03-30T08:07:47.181Z,9.68
2019-03-30T08:13:42.193Z,10.6
2019-03-30T08:19:37.190Z,10.22
2019-03-30T08:25:32.205Z,10.2
2019-03-30T08:31:27.183Z,8.26
2019-03-30T08:37:22.225Z,9.97
2019-03-30T08:43:17.208Z,9.42
2019-03-30T08:49:12.203Z,9.74
2019-03-30T08:55:07.196Z,10.32
2019-03-30T09:01:02.205Z,9.42
2019-03-30T09:06:57.230Z,8.15
2019-03-30T09:12:52.231Z,8.99
2019-03-30T09:18:47.256Z,8.71
2019-03-30T09:24:42.223Z,8.25
2019-03-30T09:30:37.262Z,7.65
2019-03-30T09:36:32.252Z,7.74
2019-03-30T09:42:27.255Z,7.89
2019-03-30T09:48:22.250Z,7.7
2019-03-30T09:54:23.348Z,7.48
2019-03-30T10:00:12.248Z,7.23
2019-03-30T10:06:07.285Z,7.96
2019-03-30T10:12:02.267Z,7.54
2019-03-30T10:17:57.262Z,7.38
2019-03-30T10:23:52.328Z,7.46
2019-03-30T10:29:47.267Z,6.79
2019-03-30T10:35:42.292Z,6.95
2019-03-30T10:41:37.273Z,6.94
2019-03-30T10:47:32.326Z,6.22
2019-03-30T10:53:27.315Z,6.56
2019-03-30T10:59:22.287Z,6.78
2019-03-30T11:05:17.296Z,6.27
2019-03-30T11:11:12.297Z,7.21
2019-03-30T11:17:07.370Z,6.94
2019-03-30T11:23:02.375Z,7.06
2019-03-30T11:28:57.343Z,7.03
2019-03-30T11:34:52.377Z,7.77
2019-03-30T11:40:47.332Z,7.23
2019-03-30T11:46:42.348Z,6.78
2019-03-30T11:52:37.342Z,6.62
2019-03-30T11:58:32.367Z,6.8
2019-03-30T12:04:27.389Z,6.27
2019-03-30T12:10:22.364Z,6.24
2019-03-30T12:16:17.352Z,5.98
2019-03-30T12:22:12.371Z,6.49
2019-03-30T12:28:07.392Z,6.79
2019-03-30T12:34:02.367Z,7.09
2019-03-30T12:39:58.298Z,6.61
2019-03-30T12:45:52.396Z,6.48
2019-03-30T12:51:47.442Z,6.77
2019-03-30T12:57:42.409Z,6.74
2019-03-30T13:03:37.407Z,5.65
2019-03-30T13:09:34.753Z,6.86
2019-03-30T13:15:27.395Z,6.42
2019-03-30T13:21:22.458Z,6.47
2019-03-30T13:27:17.427Z,7.13
2019-03-30T13:33:12.398Z,6.23
2019-03-30T13:39:07.412Z,7.18
2019-03-30T13:45:03.622Z,5.94
2019-03-30T13:50:57.436Z,6.51
2019-03-30T13:56:52.439Z,6.8
2019-03-30T14:02:47.440Z,7.09
2019-03-30T14:08:42.451Z,6.88
2019-03-30T14:14:37.455Z,6.76
2019-03-30T14:20:32.435Z,6.11
2019-03-30T14:26:31.441Z,6.27
2019-03-30T14:32:22.445Z,4.9
2019-03-30T14:38:17.459Z,4.64
2019-03-30T14:44:12.450Z,4.79
2019-03-30T14:50:07.474Z,5.19
2019-03-30T14:56:02.494Z,5.56
2019-03-30T15:01:57.516Z,5.17
2019-03-30T15:07:52.498Z,5.92
2019-03-30T15:13:47.484Z,5.46
2019-03-30T15:19:42.478Z,4.95
2019-03-30T15:25:37.545Z,4.95
2019-03-30T15:31:32.611Z,4.66
2019-03-30T15:37:27.518Z,4.66
2019-03-30T15:43:37.118Z,5.13
2019-03-30T15:49:17.553Z,4.86
2019-03-30T15:55:12.506Z,4.64
2019-03-30T16:01:07.553Z,4.49
2019-03-30T16:07:02.507Z,4.64
2019-03-30T16:12:57.558Z,4.53
2019-03-30T16:18:52.553Z,4.61
2019-03-30T16:24:47.549Z,4.46
2019-03-30T16:30:42.590Z,4.56
2019-03-30T16:36:37.532Z,4.47
2019-03-30T16:42:32.609Z,17.86
2019-03-30T16:48:27.529Z,4.69
2019-03-30T16:54:22.542Z,3.98
2019-03-30T17:00:17.551Z,4.36
2019-03-30T17:06:12.563Z,4.47
2019-03-30T17:12:07.559Z,4.37
2019-03-30T17:18:02.602Z,5.24
2019-03-30T17:23:57.561Z,5.19
2019-03-30T17:29:52.582Z,4.89
2019-03-30T17:35:47.592Z,4.92
2019-03-30T17:41:42.584Z,4.4
2019-03-30T17:47:37.609Z,4.42
2019-03-30T17:53:32.624Z,4.62
2019-03-30T17:59:27.599Z,4.34
2019-03-30T18:05:22.707Z,4.22
2019-03-30T18:11:17.590Z,5.1
2019-03-30T18:17:12.647Z,5.1
2019-03-30T18:23:07.678Z,4.81
2019-03-30T18:29:02.617Z,4.5
2019-03-30T18:34:57.663Z,5.17
2019-03-30T18:40:52.616Z,5.07
2019-03-30T18:46:47.760Z,5.17
2019-03-30T18:52:42.639Z,5.68
2019-03-30T18:58:41.734Z,5.29
2019-03-30T19:04:32.669Z,5.25
2019-03-30T19:10:27.638Z,4.98
2019-03-30T19:16:22.634Z,5.31
2019-03-30T19:22:17.713Z,5.3
2019-03-30T19:28:12.656Z,5.2
2019-03-30T19:34:07.706Z,5.59
2019-03-30T19:40:02.647Z,5.73
2019-03-30T19:45:57.698Z,5.33
2019-03-30T19:51:52.672Z,6.61
2019-03-30T19:57:47.676Z,8.89
2019-03-30T20:03:42.680Z,5.57
2019-03-30T20:09:37.675Z,5.33
2019-03-30T20:15:32.691Z,5.88
2019-03-30T20:21:27.710Z,5.53
2019-03-30T20:27:22.702Z,5.68
2019-03-30T20:33:17.689Z,6.19
2019-03-30T20:39:12.724Z,5.98
2019-03-30T20:45:07.711Z,6.45
2019-03-30T20:51:02.911Z,6.73
2019-03-30T20:56:57.743Z,7
2019-03-30T21:02:52.931Z,7.59
2019-03-30T21:08:47.710Z,7.28
2019-03-30T21:14:42.708Z,7.85
2019-03-30T21:20:37.752Z,6.91
2019-03-30T21:26:32.723Z,7.47
2019-03-30T21:32:27.713Z,6.25
2019-03-30T21:38:22.748Z,7.32
2019-03-30T21:44:22.091Z,7.49
2019-03-30T21:50:12.773Z,7.84
2019-03-30T21:56:07.780Z,7.89
2019-03-30T22:02:02.750Z,9.18
2019-03-30T22:07:57.746Z,8.52
2019-03-30T22:13:52.714Z,9.08
2019-03-30T22:19:47.821Z,9.57
2019-03-30T22:25:42.744Z,9.43
2019-03-30T22:31:37.749Z,9.52
2019-03-30T22:37:32.774Z,10.85
2019-03-30T22:43:27.775Z,10.27
2019-03-30T22:49:22.808Z,9.35
2019-03-30T22:55:17.763Z,9.56
2019-03-30T23:01:12.755Z,10.48
2019-03-30T23:07:07.787Z,9.06
2019-03-30T23:13:02.826Z,8.69
2019-03-30T23:18:57.831Z,9.96
2019-03-30T23:24:52.786Z,9.1
2019-03-30T23:30:53.861Z,10.04
2019-03-30T23:36:42.769Z,9.78
2019-03-30T23:42:37.830Z,10.44
2019-03-30T23:48:32.787Z,10.04
2019-03-30T23:54:27.795Z,9.77
